Time;durP1;ratioP1;P1;durP2;ratioP2;P2;SDS_P1;SDS_P2;PMS_P1;PMS_P2;Temp;Humidity;BMP_temperature;BMP_pressure;BME280_temperature;BME280_humidity;BME280_pressure;Samples;Min_cycle;Max_cycle;Signal;HPM_P1;HPM_P2
2021/10/01 00:01:32;;;;;;;7.50;5.57;;;;;;;10.23;72.78;97446.31;5095832;28;20020;-66
2021/10/01 00:03:58;;;;;;;5.50;4.75;;;;;;;10.14;73.22;97443.91;5096091;28;20028;-66
2021/10/01 00:06:23;;;;;;;5.93;4.60;;;;;;;10.09;73.24;97445.78;5095998;28;20069;-65
2021/10/01 00:08:49;;;;;;;9.48;4.85;;;;;;;10.09;73.04;97451.84;5095831;28;20069;-66
2021/10/01 00:11:14;;;;;;;5.60;4.43;;;;;;;9.99;73.20;97447.72;5095692;28;20035;-65
2021/10/01 00:13:40;;;;;;;6.47;4.80;;;;;;;9.94;72.93;97441.72;5095810;28;20359;-65
2021/10/01 00:16:06;;;;;;;6.60;5.05;;;;;;;9.85;73.27;97448.00;5095674;28;20047;-66
2021/10/01 00:18:31;;;;;;;6.40;5.07;;;;;;;9.76;73.25;97443.84;5095610;28;20024;-66
2021/10/01 00:20:58;;;;;;;8.52;5.20;;;;;;;9.68;73.71;97448.34;5095705;28;20027;-66
2021/10/01 00:23:24;;;;;;;6.43;4.18;;;;;;;9.65;73.61;97446.66;5095657;28;20024;-65
2021/10/01 00:25:49;;;;;;;11.20;5.53;;;;;;;9.67;73.83;97452.72;5095410;28;20111;-66
2021/10/01 00:28:15;;;;;;;9.30;5.32;;;;;;;9.60;73.29;97451.97;5095513;28;20107;-66
2021/10/01 00:30:41;;;;;;;7.55;4.60;;;;;;;9.59;73.57;97452.00;5095535;28;20028;-65
2021/10/01 00:33:06;;;;;;;9.35;4.22;;;;;;;9.58;73.06;97437.22;5095478;28;20028;-66
2021/10/01 00:35:32;;;;;;;12.60;4.82;;;;;;;9.52;72.76;97447.78;5093956;28;20020;-66
2021/10/01 00:37:59;;;;;;;5.95;4.72;;;;;;;9.47;73.24;97442.66;5095170;28;20381;-66
2021/10/01 00:40:26;;;;;;;5.82;4.50;;;;;;;9.45;72.85;97441.84;5095112;28;20065;-66
2021/10/01 00:42:52;;;;;;;8.05;4.97;;;;;;;9.41;72.79;97440.16;5095138;28;20466;-66
2021/10/01 00:45:17;;;;;;;6.47;4.50;;;;;;;9.37;73.40;97443.72;5095190;28;20020;-66
2021/10/01 00:47:43;;;;;;;7.55;4.53;;;;;;;9.34;73.44;97442.88;5095069;28;20355;-66
2021/10/01 00:50:09;;;;;;;5.80;3.88;;;;;;;9.35;73.15;97444.63;5095151;28;20032;-66
2021/10/01 00:52:35;;;;;;;7.68;4.30;;;;;;;9.31;72.42;97442.94;5094956;28;20077;-65
2021/10/01 00:55:01;;;;;;;7.55;3.78;;;;;;;9.25;71.99;97445.69;5094912;28;20076;-66
2021/10/01 00:57:27;;;;;;;8.50;4.13;;;;;;;9.21;71.90;97441.38;5094862;28;20385;-66
2021/10/01 00:59:53;;;;;;;10.40;3.97;;;;;;;9.14;71.67;97432.81;5094745;28;20032;-66
2021/10/01 01:02:19;;;;;;;8.10;4.07;;;;;;;9.13;71.71;97432.84;5094847;28;20031;-66
2021/10/01 01:04:46;;;;;;;7.10;4.10;;;;;;;8.98;72.40;97430.44;5094824;28;20408;-66
2021/10/01 01:07:23;;;;;;;5.05;3.92;;;;;;;8.98;72.65;97433.06;5094599;28;20054;-66
2021/10/01 01:10:15;;;;;;;9.85;4.22;;;;;;;8.96;72.42;97439.19;5094723;28;20050;-66
2021/10/01 01:12:58;;;;;;;5.53;4.10;;;;;;;8.93;72.10;97434.91;5094502;28;20032;-66
2021/10/01 01:15:32;;;;;;;4.45;4.03;;;;;;;8.93;71.38;97423.59;5094651;28;20038;-66
2021/10/01 01:18:28;;;;;;;4.95;3.78;;;;;;;8.89;71.78;97440.19;5094400;28;20020;-66
2021/10/01 01:21:00;;;;;;;9.95;3.70;;;;;;;8.90;71.05;97436.69;5081938;28;20663;-66
2021/10/01 01:23:54;;;;;;;5.47;3.65;;;;;;;8.80;71.08;97429.03;5094364;28;20462;-66
2021/10/01 01:26:57;;;;;;;9.63;3.92;;;;;;;8.69;71.52;97429.22;5094391;28;20359;-66
2021/10/01 01:29:28;;;;;;;6.97;3.97;;;;;;;8.58;71.47;97431.97;5094275;28;20085;-66
2021/10/01 01:31:54;;;;;;;7.85;4.03;;;;;;;8.46;71.79;97433.00;5094231;28;20473;-66
2021/10/01 01:34:49;;;;;;;6.20;4.30;;;;;;;8.40;72.51;97433.09;5094476;28;20016;-67
2021/10/01 01:37:23;;;;;;;8.40;4.22;;;;;;;8.37;72.59;97427.91;5094047;28;20027;-67
2021/10/01 01:39:50;;;;;;;5.22;3.78;;;;;;;8.31;72.51;97438.47;5094401;28;20048;-66
2021/10/01 01:42:17;;;;;;;11.02;4.35;;;;;;;8.23;72.99;97435.97;5094042;28;20016;-66
2021/10/01 01:44:44;;;;;;;6.72;4.20;;;;;;;8.20;73.10;97429.06;5094096;28;20043;-66
2021/10/01 01:47:11;;;;;;;5.55;3.95;;;;;;;8.21;72.83;97435.09;5093377;28;20047;-67
2021/10/01 01:49:38;;;;;;;7.07;3.78;;;;;;;8.20;72.68;97431.66;5093879;28;20020;-66
2021/10/01 01:52:06;;;;;;;4.80;3.80;;;;;;;8.12;72.77;97430.06;5093770;28;20085;-66
2021/10/01 01:54:34;;;;;;;9.23;4.13;;;;;;;8.11;73.20;97434.38;5093526;28;20405;-66
2021/10/01 01:57:02;;;;;;;6.50;4.35;;;;;;;8.10;72.96;97432.69;5093845;28;20024;-66
2021/10/01 01:59:30;;;;;;;4.85;4.20;;;;;;;8.07;72.84;97437.94;5093561;28;20020;-66
2021/10/01 02:01:57;;;;;;;7.13;4.78;;;;;;;8.08;73.01;97439.63;5093587;28;20012;-66
2021/10/01 02:04:25;;;;;;;6.70;4.25;;;;;;;8.08;72.37;97437.91;5093657;28;20158;-66
2021/10/01 02:06:52;;;;;;;7.28;4.25;;;;;;;8.07;72.13;97441.38;5093600;28;20054;-66
2021/10/01 02:09:19;;;;;;;7.30;4.15;;;;;;;8.04;71.92;97438.81;5093651;28;20419;-66
2021/10/01 02:11:46;;;;;;;8.35;4.38;;;;;;;8.00;72.00;97434.53;5093520;28;20051;-66
2021/10/01 02:14:18;;;;;;;8.05;5.43;;;;;;;8.01;72.19;97443.22;5093596;28;20390;-66
2021/10/01 02:16:45;;;;;;;5.50;4.70;;;;;;;7.96;72.22;97443.28;5093572;28;20034;-66
2021/10/01 02:19:13;;;;;;;5.13;4.20;;;;;;;7.86;72.39;97439.06;5093484;28;20035;-66
2021/10/01 02:21:40;;;;;;;9.00;4.93;;;;;;;7.88;72.38;97435.53;5093299;28;20478;-66
2021/10/01 02:24:05;;;;;;;10.07;5.93;;;;;;;7.83;72.27;97440.81;5093308;28;20032;-66
2021/10/01 02:26:46;;;;;;;12.32;5.68;;;;;;;7.79;72.71;97436.53;5093266;28;20107;-66
2021/10/01 02:29:21;;;;;;;12.55;6.03;;;;;;;7.73;73.31;97439.19;5092087;28;20377;-66
2021/10/01 02:32:17;;;;;;;12.98;7.68;;;;;;;7.70;73.87;97439.25;5093327;28;20112;-66
2021/10/01 02:34:45;;;;;;;12.18;7.53;;;;;;;7.71;73.84;97436.63;5093236;28;20036;-66
2021/10/01 02:37:11;;;;;;;13.85;7.18;;;;;;;7.73;74.25;97433.16;5093268;28;20084;-66
2021/10/01 02:39:39;;;;;;;16.60;7.93;;;;;;;7.74;74.35;97432.25;5093155;28;20022;-66
2021/10/01 02:42:06;;;;;;;17.83;7.72;;;;;;;7.75;74.56;97432.25;5093285;28;20426;-66
2021/10/01 02:44:33;;;;;;;10.40;6.93;;;;;;;7.77;74.10;97429.63;5093166;28;20013;-66
2021/10/01 02:46:58;;;;;;;12.85;7.47;;;;;;;7.79;74.03;97440.88;5093093;28;20056;-66
2021/10/01 02:49:24;;;;;;;14.25;7.63;;;;;;;7.79;74.24;97440.88;5093210;28;20039;-66
2021/10/01 02:51:58;;;;;;;9.90;7.65;;;;;;;7.78;73.81;97441.75;5093137;28;20465;-66
2021/10/01 02:54:30;;;;;;;12.00;7.20;;;;;;;7.78;73.79;97437.41;5092964;28;20056;-66
2021/10/01 02:57:04;;;;;;;16.92;7.80;;;;;;;7.71;73.98;97438.38;5093280;28;20453;-66
2021/10/01 02:59:33;;;;;;;16.05;7.18;;;;;;;7.62;74.51;97441.09;5094699;28;20028;-66
2021/10/01 03:01:59;;;;;;;12.55;7.30;;;;;;;7.64;74.20;97432.38;5097117;28;20020;-66
2021/10/01 03:04:26;;;;;;;11.43;8.23;;;;;;;7.62;74.21;97436.75;5096965;28;20024;-66
2021/10/01 03:06:52;;;;;;;10.13;7.28;;;;;;;7.62;74.29;97435.88;5097074;28;20020;-66
2021/10/01 03:09:23;;;;;;;12.63;8.10;;;;;;;7.59;74.14;97440.22;5097059;28;20429;-66
2021/10/01 03:11:50;;;;;;;;;;;;;;;7.63;73.60;97435.00;5097314;28;20104;-66
2021/10/01 03:14:19;;;;;;;10.43;7.28;;;;;;;7.58;73.58;97448.06;5097036;28;19923;-66
2021/10/01 03:16:45;;;;;;;9.93;7.15;;;;;;;7.56;73.42;97444.63;5096703;28;20072;-66
2021/10/01 03:19:11;;;;;;;10.88;7.28;;;;;;;7.51;73.55;97443.81;5096753;28;20123;-66
2021/10/01 03:21:37;;;;;;;9.50;7.03;;;;;;;7.46;73.50;97441.25;5096671;28;20097;-66
2021/10/01 03:24:05;;;;;;;11.60;8.00;;;;;;;7.43;73.39;97438.66;5096594;28;20024;-66
2021/10/01 03:26:31;;;;;;;14.15;7.72;;;;;;;7.39;73.49;97439.59;5096748;28;20377;-66
2021/10/01 03:28:57;;;;;;;11.02;6.88;;;;;;;7.34;73.83;97442.25;5096761;28;20024;-66
2021/10/01 03:31:25;;;;;;;13.50;7.75;;;;;;;7.34;73.52;97447.44;5096655;28;20039;-66
2021/10/01 03:33:51;;;;;;;11.00;7.45;;;;;;;7.31;73.42;97443.16;5096459;28;20165;-66
2021/10/01 03:36:17;;;;;;;10.75;7.50;;;;;;;7.23;73.80;97442.38;5096403;28;20048;-66
2021/10/01 03:38:46;;;;;;;11.32;7.43;;;;;;;7.18;73.49;97438.94;5096362;28;20031;-66
2021/10/01 03:41:13;;;;;;;13.23;7.05;;;;;;;7.14;73.32;97443.34;5096357;28;20031;-66
2021/10/01 03:43:39;;;;;;;11.43;7.15;;;;;;;7.10;73.36;97449.41;5096373;28;20020;-66
2021/10/01 03:46:04;;;;;;;10.80;7.43;;;;;;;7.06;72.95;97448.59;5096432;28;20485;-66
2021/10/01 03:48:30;;;;;;;16.30;7.00;;;;;;;7.05;72.82;97449.47;5096125;28;20024;-66
2021/10/01 03:50:56;;;;;;;12.55;7.13;;;;;;;7.02;72.61;97452.13;5096270;28;20020;-66
2021/10/01 03:53:21;;;;;;;10.38;7.25;;;;;;;6.96;72.83;97446.97;5096021;28;20040;-66
2021/10/01 03:55:47;;;;;;;9.85;7.30;;;;;;;6.92;72.80;97447.84;5096155;28;20100;-66
2021/10/01 03:58:13;;;;;;;13.10;6.95;;;;;;;6.87;72.64;97444.44;5096003;28;20027;-66
2021/10/01 04:00:38;;;;;;;12.02;6.82;;;;;;;6.85;72.76;97452.25;5095895;28;20433;-65
2021/10/01 04:03:04;;;;;;;11.07;6.95;;;;;;;6.83;72.91;97448.78;5096005;28;20043;-65
2021/10/01 04:05:29;;;;;;;12.75;7.03;;;;;;;6.81;72.68;97448.81;5096236;28;20097;-66
2021/10/01 04:07:55;;;;;;;11.63;7.25;;;;;;;6.78;73.08;97451.47;5095738;28;20020;-66
2021/10/01 04:10:21;;;;;;;16.10;7.80;;;;;;;6.78;72.98;97446.25;5095496;28;20028;-66
2021/10/01 04:12:46;;;;;;;15.32;7.78;;;;;;;6.77;73.06;97449.72;5095729;28;20024;-66
2021/10/01 04:15:12;;;;;;;11.95;8.15;;;;;;;6.73;73.66;97445.41;5095685;28;20025;-66
2021/10/01 04:17:37;;;;;;;12.90;8.32;;;;;;;6.79;74.04;97452.28;5095613;28;20020;-66
2021/10/01 04:20:06;;;;;;;19.40;8.10;;;;;;;6.81;74.12;97458.38;5095674;28;20108;-66
2021/10/01 04:22:32;;;;;;;16.90;8.00;;;;;;;6.86;73.87;97458.31;5095477;28;20016;-66
2021/10/01 04:24:58;;;;;;;17.25;8.75;;;;;;;6.87;73.93;97460.91;5095497;28;20028;-66
2021/10/01 04:27:24;;;;;;;14.73;8.05;;;;;;;6.90;73.53;97462.63;5095351;28;20024;-66
2021/10/01 04:29:49;;;;;;;17.38;7.68;;;;;;;6.85;73.57;97464.38;5095732;28;20028;-66
2021/10/01 04:32:15;;;;;;;13.45;7.05;;;;;;;6.85;73.77;97462.66;5095602;28;20028;-66
2021/10/01 04:35:05;;;;;;;13.88;8.20;;;;;;;6.92;74.30;97469.53;5095367;28;20028;-66
2021/10/01 04:37:27;;;;;;;13.80;7.57;;;;;;;6.98;74.04;97471.22;5094851;28;20517;-66
2021/10/01 04:39:53;;;;;;;13.90;7.88;;;;;;;7.00;73.85;97463.38;5095135;28;20061;-66
2021/10/01 04:42:19;;;;;;;13.65;7.93;;;;;;;7.04;74.13;97467.69;5095196;28;20028;-65
2021/10/01 04:44:46;;;;;;;14.10;7.25;;;;;;;7.01;74.47;97468.59;5095133;28;20020;-66
2021/10/01 04:47:11;;;;;;;17.75;7.85;;;;;;;7.05;73.86;97467.66;5095015;28;20548;-65
2021/10/01 04:49:37;;;;;;;12.70;7.63;;;;;;;7.12;74.15;97467.63;5095192;28;20020;-66
2021/10/01 04:52:03;;;;;;;14.30;8.18;;;;;;;7.18;74.35;97467.56;5095044;28;20077;-65
2021/10/01 04:54:29;;;;;;;12.73;7.18;;;;;;;7.28;73.93;97473.53;5094759;28;20036;-65
2021/10/01 04:56:54;;;;;;;10.80;7.38;;;;;;;7.37;73.60;97473.44;5094984;28;20500;-65
2021/10/01 04:59:20;;;;;;;10.45;7.20;;;;;;;7.49;73.04;97474.22;5095041;28;20507;-66
2021/10/01 05:01:46;;;;;;;14.95;6.50;;;;;;;7.80;71.39;97477.31;5094794;28;20020;-65
2021/10/01 05:04:11;;;;;;;10.90;5.53;;;;;;;8.54;69.74;97490.31;5094922;28;20081;-65
2021/10/01 05:06:37;;;;;;;12.02;5.60;;;;;;;9.33;66.23;97492.53;5094870;28;20473;-65
2021/10/01 05:09:04;;;;;;;9.48;5.03;;;;;;;9.76;65.02;97488.25;5094767;28;20028;-65
2021/10/01 05:11:29;;;;;;;12.98;5.28;;;;;;;10.07;63.67;97492.88;5094495;28;20583;-65
2021/10/01 05:13:55;;;;;;;9.57;4.88;;;;;;;10.46;62.40;97496.44;5094647;28;20028;-65
2021/10/01 05:16:21;;;;;;;7.50;5.07;;;;;;;10.99;61.74;97500.47;5094538;28;20027;-65
2021/10/01 05:18:47;;;;;;;6.85;4.53;;;;;;;11.74;60.03;97496.78;5094519;28;20020;-65
2021/10/01 05:21:12;;;;;;;7.90;4.30;;;;;;;12.41;57.45;97503.69;5094222;28;20032;-65
2021/10/01 05:23:38;;;;;;;13.85;4.63;;;;;;;12.53;56.72;97502.47;5094030;28;20374;-65
2021/10/01 05:26:04;;;;;;;5.22;4.07;;;;;;;12.36;57.03;97496.81;5094300;28;20541;-65
2021/10/01 05:28:30;;;;;;;8.23;4.47;;;;;;;12.35;57.56;97499.50;5094098;28;20141;-65
2021/10/01 05:30:55;;;;;;;8.85;4.40;;;;;;;12.43;57.58;97502.72;5094301;28;20487;-65
2021/10/01 05:33:21;;;;;;;9.55;4.57;;;;;;;12.64;57.44;97516.97;5092926;28;20047;-66
2021/10/01 05:35:47;;;;;;;6.80;4.45;;;;;;;12.75;56.91;97508.75;5094068;28;20028;-65
2021/10/01 05:38:14;;;;;;;9.75;5.22;;;;;;;12.95;57.26;97504.66;5094096;28;20028;-65
2021/10/01 05:40:40;;;;;;;5.70;3.70;;;;;;;13.34;56.21;97518.28;5094227;28;20028;-66
2021/10/01 05:43:06;;;;;;;5.90;3.78;;;;;;;13.75;55.47;97499.38;5094166;28;20099;-65
2021/10/01 05:45:33;;;;;;;8.45;3.60;;;;;;;14.20;53.86;97508.28;5093981;28;20101;-65
2021/10/01 05:48:01;;;;;;;6.53;3.88;;;;;;;14.45;51.79;97512.59;5093832;28;20032;-66
2021/10/01 05:50:30;;;;;;;6.38;3.58;;;;;;;14.77;52.11;97504.38;5093876;28;20012;-65
2021/10/01 05:53:02;;;;;;;9.55;3.60;;;;;;;15.03;50.56;97515.69;5093626;28;20500;-65
2021/10/01 05:55:28;;;;;;;7.43;3.78;;;;;;;14.99;50.60;97509.66;5093874;28;20032;-65
2021/10/01 05:57:54;;;;;;;9.50;3.70;;;;;;;15.29;49.78;97517.25;5093683;28;20043;-66
2021/10/01 06:00:20;;;;;;;6.90;4.00;;;;;;;15.56;48.92;97513.50;5093627;28;20020;-65
2021/10/01 06:02:45;;;;;;;7.18;3.22;;;;;;;15.96;48.87;97518.88;5093854;28;20124;-65
2021/10/01 06:05:12;;;;;;;7.07;4.03;;;;;;;16.18;46.91;97517.91;5093748;28;20474;-66
2021/10/01 06:07:39;;;;;;;6.93;3.28;;;;;;;16.65;46.34;97521.88;5093669;28;20052;-66
2021/10/01 06:10:05;;;;;;;3.30;2.80;;;;;;;17.00;46.40;97526.41;5093470;28;20085;-66
2021/10/01 06:12:31;;;;;;;4.88;3.10;;;;;;;17.30;44.90;97523.25;5093454;28;20016;-66
2021/10/01 06:14:57;;;;;;;4.65;2.95;;;;;;;17.46;45.10;97525.09;5093550;28;20027;-67
2021/10/01 06:17:22;;;;;;;6.22;3.30;;;;;;;18.08;43.62;97522.84;5093447;28;20032;-66
2021/10/01 06:19:48;;;;;;;6.72;2.97;;;;;;;18.69;42.56;97523.13;5093652;28;20111;-66
2021/10/01 06:22:14;;;;;;;3.80;3.00;;;;;;;18.89;41.03;97521.19;5093491;28;20078;-66
2021/10/01 06:24:40;;;;;;;6.90;2.88;;;;;;;19.13;41.36;97526.91;5093361;28;20059;-66
2021/10/01 06:27:06;;;;;;;5.80;2.90;;;;;;;19.45;39.09;97520.69;5093179;28;20020;-66
2021/10/01 06:29:33;;;;;;;4.38;2.55;;;;;;;20.68;38.22;97531.03;5093385;28;20416;-66
2021/10/01 06:31:58;;;;;;;9.23;2.90;;;;;;;21.36;35.33;97527.59;5093324;28;20024;-65
2021/10/01 06:34:24;;;;;;;6.13;2.58;;;;;;;21.04;35.73;97523.47;5093212;28;20504;-67
2021/10/01 06:36:50;;;;;;;6.15;2.60;;;;;;;20.89;34.71;97530.59;5093237;28;20024;-66
2021/10/01 06:39:15;;;;;;;7.13;2.58;;;;;;;20.60;36.13;97525.34;5093226;28;20103;-66
2021/10/01 06:41:41;;;;;;;4.72;2.50;;;;;;;20.23;36.19;97525.84;5093340;28;20481;-66
2021/10/01 06:44:08;;;;;;;7.65;2.97;;;;;;;19.18;38.78;97535.44;5093263;28;20020;-65
2021/10/01 08:19:30;;;;;;;6.47;2.55;;;;;;;17.29;39.04;97510.09;5096121;28;20039;-67
2021/10/01 08:21:58;;;;;;;3.70;2.40;;;;;;;17.04;39.15;97512.13;5095829;28;20473;-67
2021/10/01 08:24:24;;;;;;;3.72;2.67;;;;;;;16.73;40.28;97518.88;5095527;28;20112;-66
2021/10/01 08:26:51;;;;;;;5.97;2.40;;;;;;;16.39;40.68;97512.56;5095448;28;20039;-66
2021/10/01 08:29:17;;;;;;;5.43;2.30;;;;;;;16.25;40.86;97508.75;5095491;28;20149;-67
2021/10/01 08:31:44;;;;;;;7.57;2.60;;;;;;;16.31;41.32;97518.19;5095425;28;20486;-67
2021/10/01 08:34:11;;;;;;;6.40;2.45;;;;;;;16.24;41.49;97514.97;5095320;28;20024;-66
2021/10/01 08:36:37;;;;;;;3.90;1.92;;;;;;;16.16;42.09;97517.09;5095300;28;20094;-67
2021/10/01 08:39:05;;;;;;;4.03;2.28;;;;;;;16.04;41.25;97507.94;5095315;28;20599;-67
2021/10/01 08:41:30;;;;;;;5.15;2.10;;;;;;;16.35;41.62;97508.34;5095344;28;20032;-67
2021/10/01 08:43:57;;;;;;;4.18;2.55;;;;;;;16.83;40.71;97500.84;5095325;28;20028;-67
2021/10/01 08:46:24;;;;;;;10.00;3.75;;;;;;;17.19;40.86;97499.13;5095280;28;20111;-67
2021/10/01 08:48:52;;;;;;;4.50;2.00;;;;;;;17.49;39.18;97500.31;5093755;28;20024;-66
2021/10/01 08:51:17;;;;;;;4.93;2.75;;;;;;;17.64;39.61;97491.56;5094922;28;20052;-66
2021/10/01 08:53:43;;;;;;;4.38;2.15;;;;;;;18.17;39.63;97496.78;5094762;28;20132;-67
2021/10/01 08:56:10;;;;;;;5.22;2.10;;;;;;;17.88;37.11;97493.03;5094394;28;20062;-66
2021/10/01 08:58:35;;;;;;;3.33;2.28;;;;;;;18.16;40.03;97492.44;5094584;28;20101;-67
2021/10/01 09:01:02;;;;;;;3.95;2.30;;;;;;;18.34;39.06;97495.03;5094991;28;20466;-67
2021/10/01 09:03:28;;;;;;;9.23;2.13;;;;;;;18.38;36.13;97485.97;5094893;28;20020;-67
2021/10/01 09:05:54;;;;;;;3.22;2.10;;;;;;;18.40;34.57;97491.19;5094851;28;20478;-67
2021/10/01 09:08:22;;;;;;;2.95;2.25;;;;;;;18.27;37.88;97489.19;5094794;28;20028;-66
2021/10/01 09:11:02;;;;;;;2.67;1.98;;;;;;;17.96;36.31;97487.31;5094687;28;20031;-67
2021/10/01 09:13:28;;;;;;;6.25;2.47;;;;;;;17.61;38.31;97494.38;5094534;28;20031;-67
2021/10/01 09:16:03;;;;;;;4.13;2.30;;;;;;;17.52;40.00;97479.00;5094741;28;20028;-67
2021/10/01 09:18:31;;;;;;;5.38;2.13;;;;;;;17.95;39.58;97481.16;5094522;28;20107;-67
2021/10/01 09:21:10;;;;;;;8.50;2.28;;;;;;;18.42;38.28;97481.34;5094607;28;20562;-67
2021/10/01 09:23:45;;;;;;;4.45;2.10;;;;;;;18.50;36.73;97488.88;5094592;28;20036;-67
2021/10/01 09:26:14;;;;;;;5.15;3.05;;;;;;;18.67;37.53;97487.94;5093282;28;20028;-67
2021/10/01 09:28:50;;;;;;;7.53;2.35;;;;;;;18.52;37.86;97489.66;5094215;28;20054;-66
2021/10/01 09:31:35;;;;;;;4.82;2.65;;;;;;;18.34;38.56;97486.22;5094420;28;20059;-67
2021/10/01 09:34:02;;;;;;;2.92;2.15;;;;;;;18.35;38.37;97480.84;5094354;28;20477;-67
2021/10/01 09:36:28;;;;;;;5.32;2.42;;;;;;;18.61;37.64;97485.63;5094278;28;20034;-66
2021/10/01 09:38:55;;;;;;;9.50;2.30;;;;;;;18.14;37.18;97482.84;5094126;28;20050;-67
2021/10/01 09:41:31;;;;;;;6.75;2.28;;;;;;;17.96;37.72;97482.00;5094137;28;20020;-66
2021/10/01 09:44:11;;;;;;;3.75;2.03;;;;;;;18.18;37.98;97484.38;5094209;28;20026;-66
2021/10/01 09:46:49;;;;;;;3.92;2.20;;;;;;;18.54;39.62;97488.63;5094247;28;20032;-67
2021/10/01 09:49:17;;;;;;;8.00;2.42;;;;;;;18.54;37.81;97485.97;5093975;28;20031;-67
2021/10/01 09:51:53;;;;;;;4.43;2.20;;;;;;;18.37;38.12;97486.91;5093837;28;20028;-66
2021/10/01 09:54:21;;;;;;;4.80;2.25;;;;;;;18.17;37.73;97485.34;5093719;28;20062;-66
2021/10/01 09:56:48;;;;;;;5.50;2.30;;;;;;;17.81;38.62;97482.75;5093789;28;20024;-66
2021/10/01 09:59:22;;;;;;;5.75;2.05;;;;;;;17.58;38.48;97491.88;5093813;28;20068;-66
2021/10/01 10:02:12;;;;;;;6.32;2.28;;;;;;;17.52;40.18;97485.13;5093723;28;20017;-67
2021/10/01 10:04:41;;;;;;;7.72;2.72;;;;;;;17.42;39.17;97486.53;5093738;28;20035;-66
2021/10/01 10:07:20;;;;;;;5.45;2.40;;;;;;;16.91;39.84;97485.44;5093747;28;20040;-66
2021/10/01 10:10:07;;;;;;;5.15;2.28;;;;;;;16.53;40.53;97489.00;5093540;28;20051;-66
2021/10/01 10:12:33;;;;;;;5.63;2.88;;;;;;;16.35;39.99;97484.59;5093695;28;20031;-66
2021/10/01 10:14:59;;;;;;;7.93;2.40;;;;;;;16.09;40.88;97476.06;5093653;28;20427;-66
2021/10/01 10:17:28;;;;;;;9.02;2.50;;;;;;;15.98;42.27;97473.94;5093545;28;20028;-67
2021/10/01 10:19:59;;;;;;;3.67;2.03;;;;;;;16.15;41.68;97475.81;5093654;28;20020;-67
2021/10/01 10:37:05;;;;;;;3.90;2.05;;;;;;;17.52;39.78;97477.19;5070522;28;20376;-65
2021/10/01 10:39:37;;;;;;;5.25;2.38;;;;;;;17.63;40.32;97470.47;5070291;28;20110;-64
2021/10/01 10:42:02;;;;;;;3.83;2.22;;;;;;;17.52;38.84;97463.94;5070183;28;20017;-65
2021/10/01 10:44:56;;;;;;;5.85;3.15;;;;;;;17.33;37.94;97471.97;5070042;28;20029;-64
2021/10/01 10:47:42;;;;;;;5.97;3.08;;;;;;;16.79;39.48;97476.34;5070115;28;20053;-64
2021/10/01 10:53:19;;;;;;;9.57;2.33;;;;;;;16.91;40.35;97456.38;5070292;28;20025;-65
2021/10/01 10:55:51;;;;;;;5.07;2.33;;;;;;;17.14;38.60;97461.47;5069476;28;20045;-64
2021/10/01 10:58:29;;;;;;;4.93;2.25;;;;;;;17.26;38.15;97452.06;5069911;28;20477;-63
2021/10/01 11:01:23;;;;;;;8.00;2.35;;;;;;;17.10;40.39;97457.28;5070141;28;20062;-66
2021/10/01 11:03:54;;;;;;;3.92;2.33;;;;;;;16.86;39.10;97454.91;5063570;28;20486;-65
2021/10/01 11:06:20;;;;;;;3.03;2.35;;;;;;;16.69;39.65;97453.94;5069792;28;20119;-64
2021/10/01 11:08:49;;;;;;;3.78;2.20;;;;;;;16.48;38.76;97453.16;5069644;28;20031;-66
2021/10/01 11:11:29;;;;;;;9.57;2.30;;;;;;;16.48;38.23;97439.97;5069693;28;20039;-63
2021/10/01 11:14:20;;;;;;;3.45;2.17;;;;;;;16.77;36.58;97437.72;5069727;28;20025;-64
2021/10/01 11:16:46;;;;;;;9.70;1.98;;;;;;;16.76;37.07;97433.34;5069557;28;20048;-65
2021/10/01 11:19:12;;;;;;;3.67;2.08;;;;;;;16.86;38.66;97431.13;5069501;28;20024;-64
2021/10/01 11:21:44;;;;;;;6.18;2.20;;;;;;;17.04;40.35;97434.63;5069566;28;20033;-63
2021/10/01 11:24:21;;;;;;;5.35;2.60;;;;;;;17.28;38.92;97429.91;5069448;28;20028;-63
2021/10/01 11:26:58;;;;;;;5.68;2.40;;;;;;;17.36;38.25;97432.16;5069316;28;20071;-65
2021/10/01 11:29:32;;;;;;;4.47;2.20;;;;;;;17.09;37.63;97422.06;5069418;28;20017;-64
2021/10/01 11:32:08;;;;;;;3.40;2.13;;;;;;;17.09;38.06;97430.00;5069152;28;20485;-66
2021/10/01 11:34:51;;;;;;;4.72;2.30;;;;;;;16.89;39.94;97423.03;5068815;28;20029;-64
2021/10/01 11:37:24;;;;;;;4.15;2.50;;;;;;;16.82;41.12;97422.47;5059192;28;20474;-64
2021/10/01 11:39:52;;;;;;;3.90;2.22;;;;;;;16.90;40.03;97416.81;5055912;28;20029;-66
2021/10/01 11:42:23;;;;;;;3.25;1.80;;;;;;;17.00;38.06;97417.19;5055773;28;20045;-66
2021/10/01 11:44:48;;;;;;;;;;;;;;;17.18;38.51;97411.03;5056063;28;20355;-64
2021/10/01 11:47:14;;;;;;;4.47;2.20;;;;;;;17.13;39.13;97420.13;5055683;28;19919;-65
2021/10/01 11:49:40;;;;;;;5.25;2.40;;;;;;;17.09;39.51;97419.41;5055683;28;20017;-64
2021/10/01 11:52:10;;;;;;;4.95;2.38;;;;;;;16.90;40.72;97420.31;5055726;28;20036;-64
2021/10/01 11:54:36;;;;;;;6.70;2.35;;;;;;;16.72;39.71;97410.66;5055679;28;20487;-65
2021/10/01 11:57:08;;;;;;;6.53;2.22;;;;;;;16.81;40.31;97412.84;5055574;28;20025;-63
2021/10/01 11:59:57;;;;;;;9.30;2.22;;;;;;;16.97;41.03;97414.72;5055610;28;20486;-65
2021/10/01 12:02:46;;;;;;;5.20;2.38;;;;;;;16.90;38.53;97417.69;5055407;28;20032;-66
2021/10/01 12:05:28;;;;;;;4.22;2.15;;;;;;;16.78;40.08;97403.31;5052492;28;20041;-64
2021/10/01 12:08:12;;;;;;;4.45;2.53;;;;;;;16.97;39.92;97414.72;5055405;28;20028;-65
2021/10/01 12:10:42;;;;;;;4.43;2.33;;;;;;;16.86;39.93;97407.34;5055320;28;20027;-64
2021/10/01 12:13:09;;;;;;;6.95;2.53;;;;;;;16.72;39.49;97406.25;5055170;28;20033;-65
2021/10/01 12:15:42;;;;;;;5.15;2.35;;;;;;;16.89;39.03;97400.09;5055159;28;20104;-63
2021/10/01 12:18:41;;;;;;;2.72;2.08;;;;;;;16.85;38.71;97401.19;5055233;28;20044;-64
2021/10/01 12:21:18;;;;;;;5.75;2.95;;;;;;;16.72;40.07;97402.72;5054969;28;20128;-64
2021/10/01 12:23:48;;;;;;;5.68;2.30;;;;;;;16.86;39.38;97400.25;5055149;28;20082;-65
2021/10/01 12:26:25;;;;;;;4.55;2.10;;;;;;;17.02;38.73;97394.19;5055038;28;20021;-64
2021/10/01 12:29:20;;;;;;;5.80;2.45;;;;;;;17.00;39.50;97398.69;5054981;28;20456;-64
2021/10/01 12:31:51;;;;;;;4.13;2.45;;;;;;;16.77;40.38;97409.50;5054875;28;20091;-64
2021/10/01 12:34:21;;;;;;;8.50;2.40;;;;;;;16.51;40.30;97393.16;5054830;28;20029;-63
2021/10/01 12:36:52;;;;;;;5.10;2.33;;;;;;;16.54;40.87;97398.28;5054702;28;20060;-64
2021/10/01 12:39:22;;;;;;;4.72;2.63;;;;;;;16.64;40.66;97387.25;5054871;28;20055;-65
2021/10/01 12:42:01;;;;;;;8.27;2.30;;;;;;;16.76;40.76;97394.59;5054660;28;20021;-63
2021/10/01 12:44:28;;;;;;;7.05;2.30;;;;;;;16.65;40.12;97399.56;5054593;28;20029;-65
2021/10/01 12:46:56;;;;;;;7.38;2.80;;;;;;;16.49;40.53;97394.13;5054688;28;20107;-65
2021/10/01 12:49:30;;;;;;;5.22;2.83;;;;;;;16.45;41.23;97397.88;5053672;28;20017;-63
2021/10/01 12:52:11;;;;;;;6.22;2.58;;;;;;;16.35;40.08;97390.41;5054453;28;20522;-64
2021/10/01 12:55:12;;;;;;;5.03;2.50;;;;;;;16.02;39.94;97405.09;5054558;28;20075;-65
2021/10/01 12:57:39;;;;;;;4.72;2.40;;;;;;;15.78;41.04;97399.16;5049820;28;20044;-65
2021/10/01 13:00:05;;;;;;;3.70;2.03;;;;;;;15.47;40.34;97392.63;5054374;28;20025;-65
2021/10/01 13:02:49;;;;;;;4.10;1.98;;;;;;;15.51;41.18;97399.47;5054242;28;20044;-65
2021/10/01 13:05:23;;;;;;;6.00;2.10;;;;;;;15.52;40.19;97395.91;5054274;28;20057;-63
2021/10/01 13:07:57;;;;;;;5.22;2.47;;;;;;;15.72;40.81;97396.78;5054247;28;20076;-66
2021/10/01 13:10:48;;;;;;;4.03;2.40;;;;;;;15.75;41.91;97392.22;5054085;28;20063;-64
2021/10/01 13:13:16;;;;;;;9.85;2.63;;;;;;;15.65;40.56;97390.94;5054049;28;20081;-66
2021/10/01 13:15:43;;;;;;;2.75;2.35;;;;;;;15.71;42.21;97392.47;5053993;28;20029;-65
2021/10/01 13:18:23;;;;;;;4.07;2.30;;;;;;;15.68;41.16;97393.44;5054138;28;20021;-67
2021/10/01 13:21:10;;;;;;;6.70;2.95;;;;;;;15.71;41.97;97381.91;5054011;28;20078;-66
2021/10/01 13:23:41;;;;;;;3.60;2.22;;;;;;;15.75;41.64;97379.03;5054026;28;20029;-66
2021/10/01 13:26:22;;;;;;;3.95;2.80;;;;;;;15.85;40.74;97381.25;5053714;28;20064;-67
2021/10/01 13:29:02;;;;;;;5.72;2.60;;;;;;;15.88;41.92;97384.63;5054244;28;20458;-65
2021/10/01 13:31:29;;;;;;;4.50;2.90;;;;;;;15.76;41.54;97383.41;5054366;28;20428;-66
2021/10/01 13:33:56;;;;;;;2.88;2.00;;;;;;;15.69;41.80;97381.09;5053685;28;20168;-65
2021/10/01 13:36:23;;;;;;;5.53;2.78;;;;;;;15.60;41.22;97387.66;5053485;28;20049;-66
2021/10/01 13:38:49;;;;;;;3.88;3.30;;;;;;;15.51;40.81;97381.03;5053536;28;20014;-65
2021/10/01 13:41:18;;;;;;;8.10;3.00;;;;;;;15.52;41.18;97377.44;5053592;28;20059;-66